sensor_id;sensor_type;location;lat;lon;timestamp;pressure;altitude;pressure_sealevel;temperature;humidity
11676;BME280;5894;42.768;23.404;2023-05-25T00:01:03;95593.69;;;17.21;100.00
11676;BME280;5894;42.768;23.404;2023-05-25T00:03:30;95593.59;;;17.17;100.00
11676;BME280;5894;42.768;23.404;2023-05-25T00:06:00;95592.19;;;17.08;100.00
11676;BME280;5894;42.768;23.404;2023-05-25T00:08:28;95592.38;;;16.99;100.00
11676;BME280;5894;42.768;23.404;2023-05-25T00:10:56;95587.28;;;16.94;100.00
11676;BME280;5894;42.768;23.404;2023-05-25T00:13:24;95589.94;;;16.94;100.00
11676;BME280;5894;42.768;23.404;2023-05-25T00:15:54;95585.72;;;16.93;100.00
11676;BME280;5894;42.768;23.404;2023-05-25T00:18:25;95592.09;;;16.88;100.00
11676;BME280;5894;42.768;23.404;2023-05-25T00:20:57;95582.88;;;16.86;100.00
11676;BME280;5894;42.768;23.404;2023-05-25T00:23:30;95584.75;;;16.85;100.00
11676;BME280;5894;42.768;23.404;2023-05-25T00:25:59;95582.09;;;16.85;100.00
11676;BME280;5894;42.768;23.404;2023-05-25T00:28:28;95586.47;;;16.78;100.00
11676;BME280;5894;42.768;23.404;2023-05-25T00:30:55;95591.47;;;16.79;100.00
11676;BME280;5894;42.768;23.404;2023-05-25T00:33:23;95589.47;;;16.76;100.00
11676;BME280;5894;42.768;23.404;2023-05-25T00:35:50;95586.03;;;16.76;100.00
11676;BME280;5894;42.768;23.404;2023-05-25T00:38:19;95538.13;;;16.36;100.00
11676;BME280;5894;42.768;23.404;2023-05-25T00:40:46;95574.66;;;16.51;100.00
11676;BME280;5894;42.768;23.404;2023-05-25T00:43:13;95581.13;;;16.50;100.00
11676;BME280;5894;42.768;23.404;2023-05-25T00:45:42;95585.22;;;16.47;100.00
11676;BME280;5894;42.768;23.404;2023-05-25T00:48:09;95587.03;;;16.31;100.00
11676;BME280;5894;42.768;23.404;2023-05-25T00:50:38;95585.53;;;16.18;100.00
11676;BME280;5894;42.768;23.404;2023-05-25T00:53:08;95586.31;;;16.19;100.00
11676;BME280;5894;42.768;23.404;2023-05-25T00:55:38;95593.06;;;16.16;100.00
11676;BME280;5894;42.768;23.404;2023-05-25T00:58:07;95601.03;;;16.16;100.00
11676;BME280;5894;42.768;23.404;2023-05-25T01:00:36;95597.59;;;16.15;100.00
11676;BME280;5894;42.768;23.404;2023-05-25T01:03:13;95597.03;;;16.10;100.00
11676;BME280;5894;42.768;23.404;2023-05-25T01:05:45;95570.50;;;15.86;100.00
11676;BME280;5894;42.768;23.404;2023-05-25T01:08:15;95602.94;;;16.03;100.00
11676;BME280;5894;42.768;23.404;2023-05-25T01:10:45;95603.94;;;15.99;100.00
11676;BME280;5894;42.768;23.404;2023-05-25T01:13:19;95604.63;;;15.96;100.00
11676;BME280;5894;42.768;23.404;2023-05-25T01:15:47;95607.16;;;15.92;100.00
11676;BME280;5894;42.768;23.404;2023-05-25T01:18:20;95601.41;;;15.90;100.00
11676;BME280;5894;42.768;23.404;2023-05-25T01:20:58;95600.28;;;15.91;100.00
11676;BME280;5894;42.768;23.404;2023-05-25T01:23:41;95591.31;;;15.84;100.00
11676;BME280;5894;42.768;23.404;2023-05-25T01:26:12;95595.31;;;15.77;100.00
11676;BME280;5894;42.768;23.404;2023-05-25T01:28:47;95592.88;;;15.72;100.00
11676;BME280;5894;42.768;23.404;2023-05-25T01:31:20;95598.53;;;15.71;100.00
11676;BME280;5894;42.768;23.404;2023-05-25T01:33:49;95594.31;;;15.70;100.00
11676;BME280;5894;42.768;23.404;2023-05-25T01:36:19;95586.66;;;15.68;100.00
11676;BME280;5894;42.768;23.404;2023-05-25T01:38:47;95593.53;;;15.69;100.00
11676;BME280;5894;42.768;23.404;2023-05-25T01:41:14;95591.13;;;15.64;100.00
11676;BME280;5894;42.768;23.404;2023-05-25T01:43:49;95586.13;;;15.63;100.00
11676;BME280;5894;42.768;23.404;2023-05-25T01:46:30;95582.91;;;15.69;100.00
11676;BME280;5894;42.768;23.404;2023-05-25T01:49:08;95589.19;;;15.53;100.00
11676;BME280;5894;42.768;23.404;2023-05-25T01:51:50;95589.84;;;15.50;100.00
11676;BME280;5894;42.768;23.404;2023-05-25T01:54:34;95593.84;;;15.43;100.00
11676;BME280;5894;42.768;23.404;2023-05-25T01:57:06;95594.38;;;15.37;100.00
11676;BME280;5894;42.768;23.404;2023-05-25T01:59:35;95592.59;;;15.29;100.00
11676;BME280;5894;42.768;23.404;2023-05-25T02:02:04;95596.81;;;15.30;100.00
11676;BME280;5894;42.768;23.404;2023-05-25T02:04:31;95597.81;;;15.25;100.00
11676;BME280;5894;42.768;23.404;2023-05-25T02:07:02;95602.66;;;15.23;100.00
11676;BME280;5894;42.768;23.404;2023-05-25T02:09:29;95603.78;;;15.22;100.00
11676;BME280;5894;42.768;23.404;2023-05-25T02:11:56;95606.44;;;15.22;100.00
11676;BME280;5894;42.768;23.404;2023-05-25T02:14:24;95599.91;;;15.32;100.00
11676;BME280;5894;42.768;23.404;2023-05-25T02:16:53;95595.25;;;15.29;100.00
11676;BME280;5894;42.768;23.404;2023-05-25T02:19:20;95604.88;;;15.21;100.00
11676;BME280;5894;42.768;23.404;2023-05-25T02:21:47;95608.28;;;15.10;100.00
11676;BME280;5894;42.768;23.404;2023-05-25T02:24:16;95610.47;;;15.07;100.00
11676;BME280;5894;42.768;23.404;2023-05-25T02:26:43;95609.28;;;15.05;100.00
11676;BME280;5894;42.768;23.404;2023-05-25T02:29:11;95616.88;;;15.06;100.00
11676;BME280;5894;42.768;23.404;2023-05-25T02:31:38;95612.25;;;15.03;100.00
11676;BME280;5894;42.768;23.404;2023-05-25T02:34:06;95628.19;;;15.03;100.00
11676;BME280;5894;42.768;23.404;2023-05-25T02:36:33;95609.13;;;15.01;100.00
11676;BME280;5894;42.768;23.404;2023-05-25T02:39:03;95612.56;;;15.02;100.00
11676;BME280;5894;42.768;23.404;2023-05-25T02:41:33;95617.44;;;15.00;100.00
11676;BME280;5894;42.768;23.404;2023-05-25T02:44:02;95614.78;;;15.00;100.00
11676;BME280;5894;42.768;23.404;2023-05-25T02:46:30;95619.63;;;14.98;100.00
11676;BME280;5894;42.768;23.404;2023-05-25T02:48:58;95620.41;;;14.98;100.00
11676;BME280;5894;42.768;23.404;2023-05-25T02:51:25;95603.28;;;14.75;100.00
11676;BME280;5894;42.768;23.404;2023-05-25T02:53:55;95624.06;;;14.94;100.00
11676;BME280;5894;42.768;23.404;2023-05-25T02:56:27;95626.59;;;14.90;100.00
11676;BME280;5894;42.768;23.404;2023-05-25T02:59:01;95627.38;;;14.91;100.00
11676;BME280;5894;42.768;23.404;2023-05-25T03:01:35;95631.44;;;14.88;100.00
11676;BME280;5894;42.768;23.404;2023-05-25T03:04:05;95641.75;;;14.90;100.00
11676;BME280;5894;42.768;23.404;2023-05-25T03:06:35;95646.41;;;14.93;100.00
11676;BME280;5894;42.768;23.404;2023-05-25T03:09:13;95638.94;;;14.86;100.00
11676;BME280;5894;42.768;23.404;2023-05-25T03:11:40;95640.78;;;14.94;100.00
11676;BME280;5894;42.768;23.404;2023-05-25T03:14:14;95644.72;;;14.88;100.00
11676;BME280;5894;42.768;23.404;2023-05-25T03:16:50;95640.41;;;14.84;100.00
11676;BME280;5894;42.768;23.404;2023-05-25T03:19:19;95645.91;;;14.79;100.00
11676;BME280;5894;42.768;23.404;2023-05-25T03:21:46;95653.41;;;14.77;100.00
11676;BME280;5894;42.768;23.404;2023-05-25T03:24:13;95647.63;;;14.75;100.00
11676;BME280;5894;42.768;23.404;2023-05-25T03:26:43;95654.38;;;14.72;100.00
11676;BME280;5894;42.768;23.404;2023-05-25T03:29:10;95653.84;;;14.79;100.00
11676;BME280;5894;42.768;23.404;2023-05-25T03:31:42;95653.78;;;14.87;100.00
11676;BME280;5894;42.768;23.404;2023-05-25T03:34:09;95651.78;;;14.84;100.00
11676;BME280;5894;42.768;23.404;2023-05-25T03:36:37;95661.03;;;14.78;100.00
11676;BME280;5894;42.768;23.404;2023-05-25T03:39:05;95643.97;;;14.67;100.00
11676;BME280;5894;42.768;23.404;2023-05-25T03:41:34;95664.34;;;14.75;100.00
11676;BME280;5894;42.768;23.404;2023-05-25T03:44:02;95665.78;;;14.73;100.00
11676;BME280;5894;42.768;23.404;2023-05-25T03:46:31;95658.47;;;14.69;100.00
11676;BME280;5894;42.768;23.404;2023-05-25T03:49:00;95660.50;;;14.85;100.00
11676;BME280;5894;42.768;23.404;2023-05-25T03:51:29;95665.06;;;14.84;100.00
11676;BME280;5894;42.768;23.404;2023-05-25T03:53:56;95665.78;;;14.73;100.00
11676;BME280;5894;42.768;23.404;2023-05-25T03:56:23;95667.34;;;14.74;100.00
11676;BME280;5894;42.768;23.404;2023-05-25T03:58:51;95674.31;;;14.78;100.00
11676;BME280;5894;42.768;23.404;2023-05-25T04:01:19;95668.22;;;14.78;100.00
11676;BME280;5894;42.768;23.404;2023-05-25T04:03:47;95674.31;;;14.78;100.00
11676;BME280;5894;42.768;23.404;2023-05-25T04:06:15;95682.09;;;14.83;100.00
11676;BME280;5894;42.768;23.404;2023-05-25T04:08:44;95679.00;;;14.81;100.00
11676;BME280;5894;42.768;23.404;2023-05-25T04:11:11;95686.69;;;14.95;100.00
11676;BME280;5894;42.768;23.404;2023-05-25T04:13:38;95675.22;;;15.03;100.00
11676;BME280;5894;42.768;23.404;2023-05-25T04:16:07;95685.38;;;15.01;100.00
11676;BME280;5894;42.768;23.404;2023-05-25T04:18:34;95683.56;;;15.14;100.00
11676;BME280;5894;42.768;23.404;2023-05-25T04:21:02;95683.09;;;15.12;100.00
11676;BME280;5894;42.768;23.404;2023-05-25T04:23:36;95620.72;;;14.64;100.00
11676;BME280;5894;42.768;23.404;2023-05-25T04:26:05;95690.75;;;15.13;100.00
11676;BME280;5894;42.768;23.404;2023-05-25T04:28:35;95692.94;;;15.11;100.00
11676;BME280;5894;42.768;23.404;2023-05-25T04:31:17;95693.00;;;15.23;100.00
11676;BME280;5894;42.768;23.404;2023-05-25T04:33:59;95692.31;;;15.26;100.00
11676;BME280;5894;42.768;23.404;2023-05-25T04:36:37;95706.84;;;15.29;100.00
11676;BME280;5894;42.768;23.404;2023-05-25T04:39:10;95703.75;;;15.39;100.00
11676;BME280;5894;42.768;23.404;2023-05-25T04:41:43;95705.56;;;15.47;100.00
11676;BME280;5894;42.768;23.404;2023-05-25T04:44:11;95702.88;;;15.56;100.00
11676;BME280;5894;42.768;23.404;2023-05-25T04:46:46;95696.88;;;15.59;100.00
11676;BME280;5894;42.768;23.404;2023-05-25T04:49:18;95698.09;;;15.61;100.00
11676;BME280;5894;42.768;23.404;2023-05-25T04:51:46;95696.78;;;15.67;100.00
11676;BME280;5894;42.768;23.404;2023-05-25T04:54:15;95695.78;;;15.72;100.00
11676;BME280;5894;42.768;23.404;2023-05-25T04:56:42;95695.00;;;15.71;100.00
11676;BME280;5894;42.768;23.404;2023-05-25T04:59:09;95689.81;;;15.75;100.00
11676;BME280;5894;42.768;23.404;2023-05-25T05:01:36;95696.00;;;15.79;100.00
11676;BME280;5894;42.768;23.404;2023-05-25T05:04:06;95686.72;;;15.85;100.00
11676;BME280;5894;42.768;23.404;2023-05-25T05:06:34;95694.47;;;15.90;100.00
11676;BME280;5894;42.768;23.404;2023-05-25T05:09:02;95709.66;;;15.90;100.00
11676;BME280;5894;42.768;23.404;2023-05-25T05:11:31;95694.72;;;15.97;100.00
11676;BME280;5894;42.768;23.404;2023-05-25T05:13:58;95696.03;;;16.03;100.00
11676;BME280;5894;42.768;23.404;2023-05-25T05:16:27;95698.13;;;16.10;100.00
11676;BME280;5894;42.768;23.404;2023-05-25T05:18:58;95705.59;;;16.29;100.00
11676;BME280;5894;42.768;23.404;2023-05-25T05:21:26;95705.09;;;16.51;100.00
11676;BME280;5894;42.768;23.404;2023-05-25T05:23:53;95673.41;;;16.46;100.00
11676;BME280;5894;42.768;23.404;2023-05-25T05:26:22;95705.72;;;16.84;100.00
11676;BME280;5894;42.768;23.404;2023-05-25T05:28:53;95714.31;;;17.06;100.00
11676;BME280;5894;42.768;23.404;2023-05-25T05:31:21;95690.13;;;17.11;100.00
11676;BME280;5894;42.768;23.404;2023-05-25T05:33:49;95720.63;;;17.41;100.00
11676;BME280;5894;42.768;23.404;2023-05-25T05:36:16;95725.91;;;17.53;100.00
11676;BME280;5894;42.768;23.404;2023-05-25T05:38:43;95728.63;;;17.69;100.00
11676;BME280;5894;42.768;23.404;2023-05-25T05:41:12;95732.34;;;17.80;100.00
11676;BME280;5894;42.768;23.404;2023-05-25T05:43:40;95711.78;;;17.81;100.00
11676;BME280;5894;42.768;23.404;2023-05-25T05:46:09;95727.53;;;18.02;100.00
11676;BME280;5894;42.768;23.404;2023-05-25T05:48:38;95736.03;;;18.07;100.00
11676;BME280;5894;42.768;23.404;2023-05-25T05:51:06;95725.13;;;18.12;100.00
11676;BME280;5894;42.768;23.404;2023-05-25T05:53:34;95724.59;;;18.22;100.00
11676;BME280;5894;42.768;23.404;2023-05-25T05:56:01;95724.75;;;18.29;100.00
11676;BME280;5894;42.768;23.404;2023-05-25T05:58:29;95722.69;;;18.39;100.00
11676;BME280;5894;42.768;23.404;2023-05-25T06:00:58;95719.91;;;18.51;100.00
11676;BME280;5894;42.768;23.404;2023-05-25T06:03:27;95721.38;;;18.64;100.00
11676;BME280;5894;42.768;23.404;2023-05-25T06:05:54;95726.44;;;18.69;100.00
11676;BME280;5894;42.768;23.404;2023-05-25T06:08:21;95728.94;;;18.78;100.00
11676;BME280;5894;42.768;23.404;2023-05-25T06:10:49;95732.53;;;18.85;100.00
11676;BME280;5894;42.768;23.404;2023-05-25T06:13:16;95729.09;;;19.04;100.00
11676;BME280;5894;42.768;23.404;2023-05-25T06:15:43;95721.81;;;19.20;100.00
11676;BME280;5894;42.768;23.404;2023-05-25T06:18:15;95733.88;;;19.33;100.00
11676;BME280;5894;42.768;23.404;2023-05-25T06:20:43;95730.59;;;19.40;100.00
11676;BME280;5894;42.768;23.404;2023-05-25T06:23:10;95729.03;;;19.58;100.00
11676;BME280;5894;42.768;23.404;2023-05-25T06:25:38;95726.31;;;19.77;100.00
11676;BME280;5894;42.768;23.404;2023-05-25T06:28:06;95728.59;;;19.98;100.00
11676;BME280;5894;42.768;23.404;2023-05-25T06:30:33;95731.53;;;20.12;100.00
11676;BME280;5894;42.768;23.404;2023-05-25T06:33:01;95739.41;;;20.28;100.00
11676;BME280;5894;42.768;23.404;2023-05-25T06:35:28;95736.22;;;20.42;100.00
11676;BME280;5894;42.768;23.404;2023-05-25T06:37:57;95733.06;;;20.63;100.00
11676;BME280;5894;42.768;23.404;2023-05-25T06:40:26;95733.72;;;20.82;100.00
11676;BME280;5894;42.768;23.404;2023-05-25T06:42:54;95643.66;;;20.44;100.00
11676;BME280;5894;42.768;23.404;2023-05-25T06:45:56;95737.56;;;21.11;99.81
11676;BME280;5894;42.768;23.404;2023-05-25T06:48:24;95734.56;;;21.16;100.00
11676;BME280;5894;42.768;23.404;2023-05-25T06:50:52;95735.69;;;21.15;97.75
11676;BME280;5894;42.768;23.404;2023-05-25T06:53:21;95741.22;;;21.26;97.24
11676;BME280;5894;42.768;23.404;2023-05-25T06:55:48;95730.44;;;21.22;94.53
11676;BME280;5894;42.768;23.404;2023-05-25T06:58:15;95744.69;;;21.27;97.93
11676;BME280;5894;42.768;23.404;2023-05-25T07:00:42;95745.53;;;21.34;98.07
11676;BME280;5894;42.768;23.404;2023-05-25T07:03:09;95745.94;;;21.36;97.99
11676;BME280;5894;42.768;23.404;2023-05-25T07:05:36;95745.66;;;21.45;98.37
11676;BME280;5894;42.768;23.404;2023-05-25T07:08:04;95738.81;;;21.51;98.12
11676;BME280;5894;42.768;23.404;2023-05-25T07:10:32;95731.59;;;21.55;97.42
11676;BME280;5894;42.768;23.404;2023-05-25T07:12:59;95745.84;;;21.63;98.72
11676;BME280;5894;42.768;23.404;2023-05-25T07:15:26;95739.63;;;21.55;91.41
11676;BME280;5894;42.768;23.404;2023-05-25T07:17:53;95739.22;;;21.53;93.24
11676;BME280;5894;42.768;23.404;2023-05-25T07:20:21;95738.38;;;21.45;90.75
11676;BME280;5894;42.768;23.404;2023-05-25T07:22:49;95739.38;;;21.34;93.60
11676;BME280;5894;42.768;23.404;2023-05-25T07:25:18;95734.38;;;21.32;91.43
11676;BME280;5894;42.768;23.404;2023-05-25T07:27:48;95738.13;;;21.24;92.33
11676;BME280;5894;42.768;23.404;2023-05-25T07:30:19;95733.94;;;20.97;94.44
11676;BME280;5894;42.768;23.404;2023-05-25T07:32:46;95743.13;;;20.96;96.82
11676;BME280;5894;42.768;23.404;2023-05-25T07:35:14;95751.41;;;20.87;99.87
11676;BME280;5894;42.768;23.404;2023-05-25T07:37:41;95753.47;;;20.71;100.00
11676;BME280;5894;42.768;23.404;2023-05-25T07:40:09;95714.72;;;20.38;100.00
11676;BME280;5894;42.768;23.404;2023-05-25T07:42:36;95761.69;;;20.55;100.00
11676;BME280;5894;42.768;23.404;2023-05-25T07:45:06;95752.38;;;20.49;100.00
11676;BME280;5894;42.768;23.404;2023-05-25T07:47:36;95756.88;;;20.41;100.00
11676;BME280;5894;42.768;23.404;2023-05-25T07:50:03;95752.81;;;20.28;100.00
11676;BME280;5894;42.768;23.404;2023-05-25T07:52:31;95755.25;;;20.14;100.00
11676;BME280;5894;42.768;23.404;2023-05-25T07:54:58;95763.03;;;20.00;100.00
11676;BME280;5894;42.768;23.404;2023-05-25T07:57:25;95766.19;;;19.83;100.00
11676;BME280;5894;42.768;23.404;2023-05-25T07:59:52;95770.84;;;19.66;100.00
11676;BME280;5894;42.768;23.404;2023-05-25T08:02:21;95738.63;;;19.40;100.00
11676;BME280;5894;42.768;23.404;2023-05-25T08:04:51;95779.91;;;19.42;100.00
11676;BME280;5894;42.768;23.404;2023-05-25T08:07:19;95787.72;;;19.32;100.00
11676;BME280;5894;42.768;23.404;2023-05-25T08:09:46;95794.47;;;19.26;100.00
11676;BME280;5894;42.768;23.404;2023-05-25T08:12:13;95801.84;;;19.13;100.00
11676;BME280;5894;42.768;23.404;2023-05-25T08:14:40;95811.88;;;19.00;100.00
11676;BME280;5894;42.768;23.404;2023-05-25T08:17:08;95813.47;;;18.86;100.00
11676;BME280;5894;42.768;23.404;2023-05-25T08:19:37;95814.59;;;18.69;100.00
11676;BME280;5894;42.768;23.404;2023-05-25T08:22:04;95815.81;;;18.56;100.00
11676;BME280;5894;42.768;23.404;2023-05-25T08:24:31;95814.16;;;18.51;100.00
11676;BME280;5894;42.768;23.404;2023-05-25T08:26:58;95819.50;;;18.36;100.00
11676;BME280;5894;42.768;23.404;2023-05-25T08:29:26;95817.53;;;18.17;100.00
11676;BME280;5894;42.768;23.404;2023-05-25T08:31:53;95817.81;;;18.00;100.00
11676;BME280;5894;42.768;23.404;2023-05-25T08:34:21;95819.72;;;17.99;100.00
11676;BME280;5894;42.768;23.404;2023-05-25T08:36:49;95821.94;;;17.97;100.00
11676;BME280;5894;42.768;23.404;2023-05-25T08:39:16;95820.84;;;17.98;100.00
11676;BME280;5894;42.768;23.404;2023-05-25T08:41:44;95817.50;;;18.01;100.00
11676;BME280;5894;42.768;23.404;2023-05-25T08:44:11;95815.78;;;18.09;100.00
11676;BME280;5894;42.768;23.404;2023-05-25T08:46:40;95812.59;;;18.03;100.00
11676;BME280;5894;42.768;23.404;2023-05-25T08:49:09;95818.00;;;17.91;100.00
11676;BME280;5894;42.768;23.404;2023-05-25T08:51:42;95808.47;;;17.78;100.00
11676;BME280;5894;42.768;23.404;2023-05-25T08:54:16;95808.97;;;17.68;100.00
11676;BME280;5894;42.768;23.404;2023-05-25T08:56:48;95806.56;;;17.63;100.00
11676;BME280;5894;42.768;23.404;2023-05-25T08:59:25;95810.53;;;17.56;100.00
11676;BME280;5894;42.768;23.404;2023-05-25T09:02:03;95804.72;;;17.39;100.00
11676;BME280;5894;42.768;23.404;2023-05-25T09:04:33;95754.44;;;17.25;100.00
11676;BME280;5894;42.768;23.404;2023-05-25T09:07:00;95803.25;;;17.53;100.00
11676;BME280;5894;42.768;23.404;2023-05-25T09:09:29;95813.91;;;17.53;100.00
11676;BME280;5894;42.768;23.404;2023-05-25T09:11:57;95808.34;;;17.46;100.00
11676;BME280;5894;42.768;23.404;2023-05-25T09:14:24;95804.06;;;17.42;100.00
11676;BME280;5894;42.768;23.404;2023-05-25T09:16:52;95802.84;;;17.39;100.00
11676;BME280;5894;42.768;23.404;2023-05-25T09:19:19;95800.50;;;17.38;100.00
11676;BME280;5894;42.768;23.404;2023-05-25T09:21:46;95795.94;;;17.38;100.00
11676;BME280;5894;42.768;23.404;2023-05-25T09:24:21;95795.94;;;17.38;100.00
11676;BME280;5894;42.768;23.404;2023-05-25T09:26:50;95797.50;;;17.39;100.00
11676;BME280;5894;42.768;23.404;2023-05-25T09:29:18;95778.59;;;17.44;100.00
11676;BME280;5894;42.768;23.404;2023-05-25T09:31:46;95778.69;;;17.48;100.00
11676;BME280;5894;42.768;23.404;2023-05-25T09:34:13;95790.75;;;17.57;100.00
11676;BME280;5894;42.768;23.404;2023-05-25T09:36:40;95796.97;;;17.61;100.00
11676;BME280;5894;42.768;23.404;2023-05-25T09:39:08;95738.47;;;17.25;100.00
11676;BME280;5894;42.768;23.404;2023-05-25T09:41:36;95788.69;;;17.63;100.00
11676;BME280;5894;42.768;23.404;2023-05-25T09:44:05;95809.69;;;17.65;100.00
11676;BME280;5894;42.768;23.404;2023-05-25T09:46:33;95800.63;;;17.69;100.00
11676;BME280;5894;42.768;23.404;2023-05-25T09:49:02;95775.53;;;17.70;100.00
11676;BME280;5894;42.768;23.404;2023-05-25T09:51:30;95774.84;;;17.73;100.00
11676;BME280;5894;42.768;23.404;2023-05-25T09:53:59;95781.81;;;17.78;100.00
11676;BME280;5894;42.768;23.404;2023-05-25T09:56:26;95672.56;;;17.10;100.00
11676;BME280;5894;42.768;23.404;2023-05-25T09:58:55;95767.41;;;17.67;100.00
11676;BME280;5894;42.768;23.404;2023-05-25T10:01:24;95773.81;;;17.78;100.00
11676;BME280;5894;42.768;23.404;2023-05-25T10:03:51;95767.78;;;17.81;100.00
11676;BME280;5894;42.768;23.404;2023-05-25T10:06:21;95761.34;;;17.82;100.00
11676;BME280;5894;42.768;23.404;2023-05-25T10:08:48;95761.28;;;17.94;100.00
11676;BME280;5894;42.768;23.404;2023-05-25T10:11:18;95754.13;;;17.98;100.00
11676;BME280;5894;42.768;23.404;2023-05-25T10:13:47;95745.47;;;18.17;100.00
11676;BME280;5894;42.768;23.404;2023-05-25T10:16:23;95727.19;;;18.19;100.00
11676;BME280;5894;42.768;23.404;2023-05-25T10:18:56;95734.91;;;18.40;100.00
11676;BME280;5894;42.768;23.404;2023-05-25T10:21:26;95736.88;;;18.58;100.00
11676;BME280;5894;42.768;23.404;2023-05-25T10:24:01;95722.78;;;18.58;100.00
11676;BME280;5894;42.768;23.404;2023-05-25T10:26:32;95740.47;;;18.82;100.00
11676;BME280;5894;42.768;23.404;2023-05-25T10:29:02;95745.13;;;18.85;100.00
11676;BME280;5894;42.768;23.404;2023-05-25T10:31:34;95747.50;;;18.90;100.00
11676;BME280;5894;42.768;23.404;2023-05-25T10:34:02;95745.81;;;19.01;100.00
11676;BME280;5894;42.768;23.404;2023-05-25T10:36:30;95743.09;;;18.97;100.00
11676;BME280;5894;42.768;23.404;2023-05-25T10:39:00;95744.38;;;19.03;100.00
11676;BME280;5894;42.768;23.404;2023-05-25T10:41:28;95748.59;;;19.04;100.00
11676;BME280;5894;42.768;23.404;2023-05-25T10:43:57;95681.13;;;18.73;100.00
11676;BME280;5894;42.768;23.404;2023-05-25T10:46:25;95745.66;;;19.29;100.00
11676;BME280;5894;42.768;23.404;2023-05-25T10:48:53;95734.81;;;19.41;100.00
11676;BME280;5894;42.768;23.404;2023-05-25T10:51:36;95728.19;;;19.54;100.00
11676;BME280;5894;42.768;23.404;2023-05-25T10:54:04;95684.63;;;19.34;100.00
11676;BME280;5894;42.768;23.404;2023-05-25T10:56:31;95731.56;;;19.70;100.00
11676;BME280;5894;42.768;23.404;2023-05-25T10:58:58;95669.84;;;19.40;100.00
11676;BME280;5894;42.768;23.404;2023-05-25T11:01:26;95726.50;;;19.88;100.00
11676;BME280;5894;42.768;23.404;2023-05-25T11:07:13;95724.44;;;20.01;100.00
11676;BME280;5894;42.768;23.404;2023-05-25T11:09:42;95721.41;;;20.02;100.00
11676;BME280;5894;42.768;23.404;2023-05-25T11:12:17;95720.38;;;20.10;100.00
11676;BME280;5894;42.768;23.404;2023-05-25T11:15:07;95731.28;;;20.21;100.00
11676;BME280;5894;42.768;23.404;2023-05-25T11:17:44;95719.25;;;20.11;100.00
11676;BME280;5894;42.768;23.404;2023-05-25T11:20:22;95736.53;;;20.14;100.00
11676;BME280;5894;42.768;23.404;2023-05-25T11:22:51;95724.78;;;20.22;100.00
11676;BME280;5894;42.768;23.404;2023-05-25T11:25:41;95735.06;;;20.20;100.00
11676;BME280;5894;42.768;23.404;2023-05-25T11:28:08;95732.03;;;20.22;100.00
11676;BME280;5894;42.768;23.404;2023-05-25T11:30:39;95741.22;;;20.21;100.00
11676;BME280;5894;42.768;23.404;2023-05-25T11:33:06;95735.97;;;20.28;100.00
11676;BME280;5894;42.768;23.404;2023-05-25T11:35:34;95710.56;;;20.18;100.00
11676;BME280;5894;42.768;23.404;2023-05-25T11:38:07;95728.53;;;20.40;100.00
11676;BME280;5894;42.768;23.404;2023-05-25T11:40:34;95722.16;;;20.48;100.00
11676;BME280;5894;42.768;23.404;2023-05-25T11:43:02;95724.56;;;20.57;100.00
11676;BME280;5894;42.768;23.404;2023-05-25T11:45:31;95692.38;;;20.54;100.00
11676;BME280;5894;42.768;23.404;2023-05-25T11:47:59;95718.72;;;20.78;100.00
11676;BME280;5894;42.768;23.404;2023-05-25T11:50:26;95715.38;;;20.84;100.00
11676;BME280;5894;42.768;23.404;2023-05-25T11:52:53;95722.53;;;21.03;100.00
11676;BME280;5894;42.768;23.404;2023-05-25T11:55:22;95720.75;;;21.14;100.00
11676;BME280;5894;42.768;23.404;2023-05-25T11:57:56;95707.97;;;21.34;100.00
11676;BME280;5894;42.768;23.404;2023-05-25T12:00:24;95696.91;;;21.39;100.00
11676;BME280;5894;42.768;23.404;2023-05-25T12:02:52;95706.88;;;21.76;100.00
11676;BME280;5894;42.768;23.404;2023-05-25T12:05:19;95711.84;;;22.14;100.00
11676;BME280;5894;42.768;23.404;2023-05-25T12:07:47;95722.13;;;22.53;100.00
11676;BME280;5894;42.768;23.404;2023-05-25T12:10:15;95637.69;;;22.03;100.00
11676;BME280;5894;42.768;23.404;2023-05-25T12:12:45;95716.94;;;22.81;100.00
11676;BME280;5894;42.768;23.404;2023-05-25T12:15:14;95687.69;;;22.73;100.00
11676;BME280;5894;42.768;23.404;2023-05-25T12:17:43;95727.47;;;23.11;100.00
11676;BME280;5894;42.768;23.404;2023-05-25T12:20:11;95702.88;;;23.16;100.00
11676;BME280;5894;42.768;23.404;2023-05-25T12:22:40;95714.53;;;23.49;100.00
11676;BME280;5894;42.768;23.404;2023-05-25T12:25:09;95707.69;;;23.72;100.00
11676;BME280;5894;42.768;23.404;2023-05-25T12:27:37;95687.31;;;23.78;100.00
11676;BME280;5894;42.768;23.404;2023-05-25T12:30:08;95698.88;;;24.00;100.00
11676;BME280;5894;42.768;23.404;2023-05-25T12:32:51;95665.38;;;24.19;100.00
11676;BME280;5894;42.768;23.404;2023-05-25T12:35:18;95698.50;;;24.48;93.31
11676;BME280;5894;42.768;23.404;2023-05-25T12:37:45;95687.66;;;24.76;100.00
11676;BME280;5894;42.768;23.404;2023-05-25T12:40:17;95684.13;;;25.04;96.04
11676;BME280;5894;42.768;23.404;2023-05-25T12:42:44;95675.22;;;25.18;92.13
11676;BME280;5894;42.768;23.404;2023-05-25T12:45:12;95678.94;;;25.45;93.06
11676;BME280;5894;42.768;23.404;2023-05-25T12:47:44;95602.75;;;25.16;81.59
11676;BME280;5894;42.768;23.404;2023-05-25T12:50:13;95653.78;;;25.59;79.27
11676;BME280;5894;42.768;23.404;2023-05-25T12:52:42;95649.50;;;25.72;80.40
11676;BME280;5894;42.768;23.404;2023-05-25T12:55:22;95634.38;;;25.82;82.49
11676;BME280;5894;42.768;23.404;2023-05-25T12:57:52;95636.09;;;26.06;84.36
11676;BME280;5894;42.768;23.404;2023-05-25T13:00:22;95629.81;;;26.16;82.18
11676;BME280;5894;42.768;23.404;2023-05-25T13:02:49;95625.91;;;26.24;81.71
11676;BME280;5894;42.768;23.404;2023-05-25T13:05:20;95618.13;;;26.30;82.11